sensor_id;sensor_type;location;lat;lon;timestamp;P1;durP1;ratioP1;P2;durP2;ratioP2
13807;SDS011;40769;51.512;5.494;2023-09-30T00:02:14;4.75;;;4.03;;
13807;SDS011;40769;51.512;5.494;2023-09-30T00:04:39;5.00;;;3.85;;
13807;SDS011;40769;51.512;5.494;2023-09-30T00:07:05;5.05;;;4.55;;
13807;SDS011;40769;51.512;5.494;2023-09-30T00:09:31;6.57;;;5.35;;
13807;SDS011;40769;51.512;5.494;2023-09-30T00:11:56;4.70;;;4.20;;
13807;SDS011;40769;51.512;5.494;2023-09-30T00:14:22;4.82;;;4.32;;
13807;SDS011;40769;51.512;5.494;2023-09-30T00:16:48;4.35;;;3.92;;
13807;SDS011;40769;51.512;5.494;2023-09-30T00:19:14;4.53;;;4.13;;
13807;SDS011;40769;51.512;5.494;2023-09-30T00:21:39;5.68;;;4.75;;
13807;SDS011;40769;51.512;5.494;2023-09-30T00:24:05;6.20;;;5.57;;
13807;SDS011;40769;51.512;5.494;2023-09-30T00:26:31;7.80;;;6.85;;
13807;SDS011;40769;51.512;5.494;2023-09-30T00:28:57;5.28;;;4.80;;
13807;SDS011;40769;51.512;5.494;2023-09-30T00:31:22;6.47;;;5.68;;
13807;SDS011;40769;51.512;5.494;2023-09-30T00:33:51;5.07;;;4.57;;
13807;SDS011;40769;51.512;5.494;2023-09-30T00:36:17;5.45;;;4.97;;
13807;SDS011;40769;51.512;5.494;2023-09-30T00:38:42;6.30;;;5.53;;
13807;SDS011;40769;51.512;5.494;2023-09-30T00:41:08;5.10;;;4.60;;
13807;SDS011;40769;51.512;5.494;2023-09-30T00:43:34;5.78;;;4.43;;
13807;SDS011;40769;51.512;5.494;2023-09-30T00:46:04;7.05;;;5.28;;
13807;SDS011;40769;51.512;5.494;2023-09-30T00:48:50;5.53;;;5.00;;
13807;SDS011;40769;51.512;5.494;2023-09-30T00:51:16;7.00;;;6.30;;
13807;SDS011;40769;51.512;5.494;2023-09-30T00:53:42;5.10;;;4.57;;
13807;SDS011;40769;51.512;5.494;2023-09-30T00:56:09;4.43;;;4.03;;
13807;SDS011;40769;51.512;5.494;2023-09-30T00:58:36;5.75;;;5.10;;
13807;SDS011;40769;51.512;5.494;2023-09-30T01:01:03;5.38;;;4.88;;
13807;SDS011;40769;51.512;5.494;2023-09-30T01:03:30;5.15;;;4.63;;
13807;SDS011;40769;51.512;5.494;2023-09-30T01:05:56;7.10;;;6.40;;
13807;SDS011;40769;51.512;5.494;2023-09-30T01:08:21;6.47;;;5.63;;
13807;SDS011;40769;51.512;5.494;2023-09-30T01:10:47;5.35;;;4.85;;
13807;SDS011;40769;51.512;5.494;2023-09-30T01:13:13;5.38;;;4.20;;
13807;SDS011;40769;51.512;5.494;2023-09-30T01:15:39;5.05;;;4.53;;
13807;SDS011;40769;51.512;5.494;2023-09-30T01:18:05;4.40;;;4.00;;
13807;SDS011;40769;51.512;5.494;2023-09-30T01:20:31;4.75;;;4.35;;
13807;SDS011;40769;51.512;5.494;2023-09-30T01:22:57;5.15;;;4.10;;
13807;SDS011;40769;51.512;5.494;2023-09-30T01:25:23;5.97;;;5.25;;
13807;SDS011;40769;51.512;5.494;2023-09-30T01:27:49;5.10;;;4.68;;
13807;SDS011;40769;51.512;5.494;2023-09-30T01:30:19;6.53;;;5.93;;
13807;SDS011;40769;51.512;5.494;2023-09-30T01:32:47;5.45;;;4.95;;
13807;SDS011;40769;51.512;5.494;2023-09-30T01:35:13;6.00;;;5.50;;
13807;SDS011;40769;51.512;5.494;2023-09-30T01:37:39;5.70;;;5.20;;
13807;SDS011;40769;51.512;5.494;2023-09-30T01:40:04;5.93;;;4.93;;
13807;SDS011;40769;51.512;5.494;2023-09-30T01:42:35;5.50;;;5.00;;
13807;SDS011;40769;51.512;5.494;2023-09-30T01:45:01;6.28;;;5.68;;
13807;SDS011;40769;51.512;5.494;2023-09-30T01:47:27;5.40;;;4.88;;
13807;SDS011;40769;51.512;5.494;2023-09-30T01:49:53;5.32;;;4.72;;
13807;SDS011;40769;51.512;5.494;2023-09-30T01:52:19;5.40;;;4.90;;
13807;SDS011;40769;51.512;5.494;2023-09-30T01:54:44;5.28;;;4.80;;
13807;SDS011;40769;51.512;5.494;2023-09-30T01:57:10;6.20;;;5.60;;
13807;SDS011;40769;51.512;5.494;2023-09-30T01:59:36;7.13;;;6.18;;
13807;SDS011;40769;51.512;5.494;2023-09-30T02:02:01;6.57;;;5.97;;
13807;SDS011;40769;51.512;5.494;2023-09-30T02:04:27;6.68;;;6.03;;
13807;SDS011;40769;51.512;5.494;2023-09-30T02:06:54;7.00;;;6.30;;
13807;SDS011;40769;51.512;5.494;2023-09-30T02:09:20;7.57;;;6.78;;
13807;SDS011;40769;51.512;5.494;2023-09-30T02:11:45;8.48;;;7.53;;
13807;SDS011;40769;51.512;5.494;2023-09-30T02:14:11;6.03;;;5.38;;
13807;SDS011;40769;51.512;5.494;2023-09-30T02:16:37;6.80;;;6.18;;
13807;SDS011;40769;51.512;5.494;2023-09-30T02:19:04;6.85;;;6.25;;
13807;SDS011;40769;51.512;5.494;2023-09-30T02:21:29;6.85;;;6.20;;
13807;SDS011;40769;51.512;5.494;2023-09-30T02:23:55;8.05;;;6.72;;
13807;SDS011;40769;51.512;5.494;2023-09-30T02:26:21;7.55;;;6.45;;
13807;SDS011;40769;51.512;5.494;2023-09-30T02:28:50;8.88;;;6.72;;
13807;SDS011;40769;51.512;5.494;2023-09-30T02:31:16;8.32;;;7.43;;
13807;SDS011;40769;51.512;5.494;2023-09-30T02:33:42;8.50;;;7.10;;
13807;SDS011;40769;51.512;5.494;2023-09-30T02:36:09;7.78;;;7.07;;
13807;SDS011;40769;51.512;5.494;2023-09-30T02:38:35;7.30;;;6.60;;
13807;SDS011;40769;51.512;5.494;2023-09-30T02:41:03;8.13;;;7.32;;
13807;SDS011;40769;51.512;5.494;2023-09-30T02:43:30;8.13;;;7.43;;
13807;SDS011;40769;51.512;5.494;2023-09-30T02:45:56;7.97;;;7.15;;
13807;SDS011;40769;51.512;5.494;2023-09-30T02:48:21;7.75;;;6.88;;
13807;SDS011;40769;51.512;5.494;2023-09-30T02:50:47;7.90;;;7.20;;
13807;SDS011;40769;51.512;5.494;2023-09-30T02:53:13;8.98;;;8.00;;
13807;SDS011;40769;51.512;5.494;2023-09-30T02:55:39;8.32;;;7.43;;
13807;SDS011;40769;51.512;5.494;2023-09-30T02:58:06;6.82;;;6.22;;
13807;SDS011;40769;51.512;5.494;2023-09-30T03:00:35;6.47;;;5.85;;
13807;SDS011;40769;51.512;5.494;2023-09-30T03:03:01;5.47;;;4.97;;
13807;SDS011;40769;51.512;5.494;2023-09-30T03:05:27;6.07;;;5.47;;
13807;SDS011;40769;51.512;5.494;2023-09-30T03:07:55;7.95;;;6.63;;
13807;SDS011;40769;51.512;5.494;2023-09-30T03:10:23;8.95;;;7.97;;
13807;SDS011;40769;51.512;5.494;2023-09-30T03:12:49;9.30;;;7.22;;
13807;SDS011;40769;51.512;5.494;2023-09-30T03:15:16;7.78;;;6.97;;
13807;SDS011;40769;51.512;5.494;2023-09-30T03:21:01;9.80;;;7.97;;
13807;SDS011;40769;51.512;5.494;2023-09-30T03:23:30;8.35;;;7.50;;
13807;SDS011;40769;51.512;5.494;2023-09-30T03:25:59;8.80;;;6.85;;
13807;SDS011;40769;51.512;5.494;2023-09-30T03:28:25;8.75;;;7.90;;
13807;SDS011;40769;51.512;5.494;2023-09-30T03:30:52;7.18;;;6.47;;
13807;SDS011;40769;51.512;5.494;2023-09-30T03:33:17;7.20;;;6.50;;
13807;SDS011;40769;51.512;5.494;2023-09-30T03:35:43;7.93;;;7.13;;
13807;SDS011;40769;51.512;5.494;2023-09-30T03:38:09;9.40;;;8.35;;
13807;SDS011;40769;51.512;5.494;2023-09-30T03:40:35;7.03;;;6.43;;
13807;SDS011;40769;51.512;5.494;2023-09-30T03:43:03;6.88;;;5.93;;
13807;SDS011;40769;51.512;5.494;2023-09-30T03:45:32;7.05;;;6.20;;
13807;SDS011;40769;51.512;5.494;2023-09-30T03:47:58;6.22;;;5.63;;
13807;SDS011;40769;51.512;5.494;2023-09-30T03:50:26;7.65;;;6.88;;
13807;SDS011;40769;51.512;5.494;2023-09-30T03:53:00;6.80;;;6.20;;
13807;SDS011;40769;51.512;5.494;2023-09-30T03:55:26;6.70;;;6.10;;
13807;SDS011;40769;51.512;5.494;2023-09-30T03:57:54;6.15;;;5.55;;
13807;SDS011;40769;51.512;5.494;2023-09-30T04:00:20;6.55;;;5.90;;
13807;SDS011;40769;51.512;5.494;2023-09-30T04:02:46;5.90;;;5.40;;
13807;SDS011;40769;51.512;5.494;2023-09-30T04:05:18;7.80;;;7.00;;
13807;SDS011;40769;51.512;5.494;2023-09-30T04:07:44;6.78;;;6.15;;
13807;SDS011;40769;51.512;5.494;2023-09-30T04:10:10;6.53;;;5.93;;
13807;SDS011;40769;51.512;5.494;2023-09-30T04:12:36;6.20;;;5.65;;
13807;SDS011;40769;51.512;5.494;2023-09-30T04:15:02;5.53;;;5.00;;
13807;SDS011;40769;51.512;5.494;2023-09-30T04:17:31;6.25;;;5.65;;
13807;SDS011;40769;51.512;5.494;2023-09-30T04:19:57;5.40;;;4.88;;
13807;SDS011;40769;51.512;5.494;2023-09-30T04:22:23;5.07;;;4.68;;
13807;SDS011;40769;51.512;5.494;2023-09-30T04:24:50;5.88;;;5.35;;
13807;SDS011;40769;51.512;5.494;2023-09-30T04:27:16;5.30;;;4.80;;
13807;SDS011;40769;51.512;5.494;2023-09-30T04:29:42;5.10;;;4.68;;
13807;SDS011;40769;51.512;5.494;2023-09-30T04:32:08;6.10;;;5.50;;
13807;SDS011;40769;51.512;5.494;2023-09-30T04:34:34;5.13;;;4.72;;
13807;SDS011;40769;51.512;5.494;2023-09-30T04:37:00;5.97;;;5.15;;
13807;SDS011;40769;51.512;5.494;2023-09-30T04:39:27;5.38;;;4.93;;
13807;SDS011;40769;51.512;5.494;2023-09-30T04:41:52;5.20;;;4.57;;
13807;SDS011;40769;51.512;5.494;2023-09-30T04:44:20;5.35;;;4.85;;
13807;SDS011;40769;51.512;5.494;2023-09-30T04:46:47;9.18;;;5.72;;
13807;SDS011;40769;51.512;5.494;2023-09-30T04:49:14;6.40;;;5.70;;
13807;SDS011;40769;51.512;5.494;2023-09-30T04:51:40;6.13;;;5.60;;
13807;SDS011;40769;51.512;5.494;2023-09-30T04:54:06;6.25;;;5.65;;
13807;SDS011;40769;51.512;5.494;2023-09-30T04:56:33;4.88;;;4.47;;
13807;SDS011;40769;51.512;5.494;2023-09-30T04:59:03;5.60;;;5.10;;
13807;SDS011;40769;51.512;5.494;2023-09-30T05:01:31;5.60;;;5.10;;
13807;SDS011;40769;51.512;5.494;2023-09-30T05:03:57;5.47;;;4.63;;
13807;SDS011;40769;51.512;5.494;2023-09-30T05:06:23;5.90;;;5.35;;
13807;SDS011;40769;51.512;5.494;2023-09-30T05:08:48;5.22;;;4.72;;
13807;SDS011;40769;51.512;5.494;2023-09-30T05:11:14;5.72;;;5.22;;
13807;SDS011;40769;51.512;5.494;2023-09-30T05:13:40;6.45;;;4.88;;
13807;SDS011;40769;51.512;5.494;2023-09-30T05:16:06;5.93;;;5.18;;
13807;SDS011;40769;51.512;5.494;2023-09-30T05:18:38;6.03;;;5.53;;
13807;SDS011;40769;51.512;5.494;2023-09-30T05:21:07;6.38;;;5.28;;
13807;SDS011;40769;51.512;5.494;2023-09-30T05:23:32;5.30;;;4.80;;
13807;SDS011;40769;51.512;5.494;2023-09-30T05:25:58;4.78;;;4.38;;
13807;SDS011;40769;51.512;5.494;2023-09-30T05:28:23;6.00;;;5.40;;
13807;SDS011;40769;51.512;5.494;2023-09-30T05:30:49;6.47;;;5.88;;
13807;SDS011;40769;51.512;5.494;2023-09-30T05:33:15;5.95;;;5.35;;
13807;SDS011;40769;51.512;5.494;2023-09-30T05:35:41;5.78;;;5.13;;
13807;SDS011;40769;51.512;5.494;2023-09-30T05:38:07;5.80;;;5.22;;
13807;SDS011;40769;51.512;5.494;2023-09-30T05:40:33;4.93;;;4.35;;
13807;SDS011;40769;51.512;5.494;2023-09-30T05:42:59;5.22;;;4.82;;
13807;SDS011;40769;51.512;5.494;2023-09-30T05:45:26;6.00;;;5.50;;
13807;SDS011;40769;51.512;5.494;2023-09-30T05:47:52;6.03;;;5.43;;
13807;SDS011;40769;51.512;5.494;2023-09-30T05:50:20;5.32;;;4.82;;
13807;SDS011;40769;51.512;5.494;2023-09-30T05:52:53;7.07;;;5.90;;
13807;SDS011;40769;51.512;5.494;2023-09-30T05:55:20;6.78;;;6.18;;
13807;SDS011;40769;51.512;5.494;2023-09-30T05:57:48;6.28;;;5.68;;
13807;SDS011;40769;51.512;5.494;2023-09-30T06:00:18;6.60;;;5.90;;
13807;SDS011;40769;51.512;5.494;2023-09-30T06:02:56;5.78;;;5.28;;
13807;SDS011;40769;51.512;5.494;2023-09-30T06:05:22;5.20;;;4.70;;
13807;SDS011;40769;51.512;5.494;2023-09-30T06:07:49;7.55;;;6.13;;
13807;SDS011;40769;51.512;5.494;2023-09-30T06:10:14;6.75;;;6.15;;
13807;SDS011;40769;51.512;5.494;2023-09-30T06:12:43;7.75;;;7.00;;
13807;SDS011;40769;51.512;5.494;2023-09-30T06:15:11;7.00;;;6.32;;
13807;SDS011;40769;51.512;5.494;2023-09-30T06:17:38;7.65;;;6.88;;
13807;SDS011;40769;51.512;5.494;2023-09-30T06:20:05;7.22;;;6.53;;
13807;SDS011;40769;51.512;5.494;2023-09-30T06:22:34;7.65;;;6.90;;
13807;SDS011;40769;51.512;5.494;2023-09-30T06:25:00;9.00;;;7.72;;
13807;SDS011;40769;51.512;5.494;2023-09-30T06:27:29;7.78;;;7.03;;
13807;SDS011;40769;51.512;5.494;2023-09-30T06:29:54;8.02;;;6.95;;
13807;SDS011;40769;51.512;5.494;2023-09-30T06:32:20;8.35;;;7.47;;
13807;SDS011;40769;51.512;5.494;2023-09-30T06:34:46;9.27;;;8.10;;
13807;SDS011;40769;51.512;5.494;2023-09-30T06:37:12;8.50;;;7.65;;
13807;SDS011;40769;51.512;5.494;2023-09-30T06:39:38;9.00;;;7.95;;
13807;SDS011;40769;51.512;5.494;2023-09-30T06:42:04;9.35;;;8.40;;
13807;SDS011;40769;51.512;5.494;2023-09-30T06:44:30;9.25;;;8.00;;
13807;SDS011;40769;51.512;5.494;2023-09-30T06:46:56;8.55;;;7.45;;
13807;SDS011;40769;51.512;5.494;2023-09-30T06:49:22;9.13;;;8.23;;
13807;SDS011;40769;51.512;5.494;2023-09-30T06:51:48;9.70;;;8.13;;
13807;SDS011;40769;51.512;5.494;2023-09-30T06:54:13;11.00;;;7.93;;
13807;SDS011;40769;51.512;5.494;2023-09-30T06:56:39;9.07;;;7.88;;
13807;SDS011;40769;51.512;5.494;2023-09-30T06:59:06;7.95;;;7.13;;
13807;SDS011;40769;51.512;5.494;2023-09-30T07:01:31;9.35;;;6.97;;
13807;SDS011;40769;51.512;5.494;2023-09-30T07:03:57;9.07;;;7.40;;
13807;SDS011;40769;51.512;5.494;2023-09-30T07:06:23;8.27;;;6.72;;
13807;SDS011;40769;51.512;5.494;2023-09-30T07:08:49;7.53;;;6.68;;
13807;SDS011;40769;51.512;5.494;2023-09-30T07:11:15;10.82;;;7.30;;
13807;SDS011;40769;51.512;5.494;2023-09-30T07:13:41;8.63;;;7.72;;
13807;SDS011;40769;51.512;5.494;2023-09-30T07:16:08;6.45;;;5.80;;
13807;SDS011;40769;51.512;5.494;2023-09-30T07:18:35;8.27;;;6.68;;
13807;SDS011;40769;51.512;5.494;2023-09-30T07:21:00;9.10;;;6.82;;
13807;SDS011;40769;51.512;5.494;2023-09-30T07:23:29;7.32;;;6.40;;
13807;SDS011;40769;51.512;5.494;2023-09-30T07:25:57;6.90;;;6.20;;
13807;SDS011;40769;51.512;5.494;2023-09-30T07:28:22;8.25;;;6.70;;
13807;SDS011;40769;51.512;5.494;2023-09-30T07:30:48;8.43;;;6.82;;
13807;SDS011;40769;51.512;5.494;2023-09-30T07:33:14;9.30;;;6.50;;
13807;SDS011;40769;51.512;5.494;2023-09-30T07:35:39;10.05;;;7.30;;
13807;SDS011;40769;51.512;5.494;2023-09-30T07:38:05;7.03;;;5.53;;
13807;SDS011;40769;51.512;5.494;2023-09-30T07:40:30;7.72;;;6.53;;
13807;SDS011;40769;51.512;5.494;2023-09-30T07:42:57;10.15;;;7.05;;
13807;SDS011;40769;51.512;5.494;2023-09-30T07:45:23;5.22;;;4.68;;
13807;SDS011;40769;51.512;5.494;2023-09-30T07:47:48;8.82;;;6.65;;
13807;SDS011;40769;51.512;5.494;2023-09-30T07:50:16;6.18;;;5.20;;
13807;SDS011;40769;51.512;5.494;2023-09-30T07:52:42;6.90;;;5.85;;
13807;SDS011;40769;51.512;5.494;2023-09-30T07:55:09;7.63;;;6.35;;
13807;SDS011;40769;51.512;5.494;2023-09-30T07:57:35;10.13;;;6.00;;
13807;SDS011;40769;51.512;5.494;2023-09-30T08:00:01;9.48;;;5.97;;
13807;SDS011;40769;51.512;5.494;2023-09-30T08:02:28;8.35;;;5.55;;
13807;SDS011;40769;51.512;5.494;2023-09-30T08:04:58;6.93;;;4.97;;
13807;SDS011;40769;51.512;5.494;2023-09-30T08:07:27;6.53;;;4.88;;
13807;SDS011;40769;51.512;5.494;2023-09-30T08:09:53;6.70;;;5.35;;
13807;SDS011;40769;51.512;5.494;2023-09-30T08:12:18;6.22;;;4.68;;
13807;SDS011;40769;51.512;5.494;2023-09-30T08:14:44;6.55;;;4.57;;
13807;SDS011;40769;51.512;5.494;2023-09-30T08:17:10;10.13;;;4.85;;
13807;SDS011;40769;51.512;5.494;2023-09-30T08:19:36;6.35;;;4.78;;
13807;SDS011;40769;51.512;5.494;2023-09-30T08:22:02;7.43;;;4.85;;
13807;SDS011;40769;51.512;5.494;2023-09-30T08:24:29;9.95;;;5.20;;
13807;SDS011;40769;51.512;5.494;2023-09-30T08:26:54;9.77;;;4.50;;
13807;SDS011;40769;51.512;5.494;2023-09-30T08:29:21;7.75;;;4.63;;
13807;SDS011;40769;51.512;5.494;2023-09-30T08:31:47;8.10;;;4.57;;
13807;SDS011;40769;51.512;5.494;2023-09-30T08:34:15;8.32;;;4.53;;
13807;SDS011;40769;51.512;5.494;2023-09-30T08:36:42;9.38;;;4.80;;
13807;SDS011;40769;51.512;5.494;2023-09-30T08:39:08;9.75;;;4.82;;
13807;SDS011;40769;51.512;5.494;2023-09-30T08:41:35;7.45;;;4.45;;
13807;SDS011;40769;51.512;5.494;2023-09-30T08:44:01;7.47;;;4.53;;
13807;SDS011;40769;51.512;5.494;2023-09-30T08:46:34;8.90;;;4.40;;
13807;SDS011;40769;51.512;5.494;2023-09-30T08:49:00;9.30;;;4.03;;
13807;SDS011;40769;51.512;5.494;2023-09-30T08:51:31;7.45;;;4.05;;
13807;SDS011;40769;51.512;5.494;2023-09-30T08:54:00;7.15;;;4.32;;
13807;SDS011;40769;51.512;5.494;2023-09-30T08:56:29;6.70;;;4.30;;
13807;SDS011;40769;51.512;5.494;2023-09-30T08:58:58;9.07;;;4.60;;
13807;SDS011;40769;51.512;5.494;2023-09-30T09:01:25;6.88;;;3.80;;
13807;SDS011;40769;51.512;5.494;2023-09-30T09:03:54;8.38;;;3.67;;
13807;SDS011;40769;51.512;5.494;2023-09-30T09:06:23;7.10;;;3.90;;
13807;SDS011;40769;51.512;5.494;2023-09-30T09:08:50;7.05;;;3.97;;
13807;SDS011;40769;51.512;5.494;2023-09-30T09:11:17;6.97;;;3.92;;
13807;SDS011;40769;51.512;5.494;2023-09-30T09:13:47;6.93;;;4.07;;
13807;SDS011;40769;51.512;5.494;2023-09-30T09:16:20;6.60;;;3.35;;
13807;SDS011;40769;51.512;5.494;2023-09-30T09:18:47;7.72;;;3.70;;
13807;SDS011;40769;51.512;5.494;2023-09-30T09:21:17;6.10;;;3.67;;
13807;SDS011;40769;51.512;5.494;2023-09-30T09:23:46;7.32;;;3.65;;
13807;SDS011;40769;51.512;5.494;2023-09-30T09:26:31;4.35;;;2.90;;
13807;SDS011;40769;51.512;5.494;2023-09-30T09:29:12;3.47;;;2.17;;
13807;SDS011;40769;51.512;5.494;2023-09-30T09:31:38;7.30;;;2.95;;
13807;SDS011;40769;51.512;5.494;2023-09-30T09:34:12;4.90;;;3.08;;
13807;SDS011;40769;51.512;5.494;2023-09-30T09:36:58;4.93;;;2.75;;
13807;SDS011;40769;51.512;5.494;2023-09-30T09:39:34;6.38;;;3.35;;
13807;SDS011;40769;51.512;5.494;2023-09-30T09:41:59;4.72;;;2.80;;
13807;SDS011;40769;51.512;5.494;2023-09-30T09:45:02;4.60;;;2.85;;
13807;SDS011;40769;51.512;5.494;2023-09-30T09:50:42;4.55;;;2.60;;
13807;SDS011;40769;51.512;5.494;2023-09-30T09:53:11;4.72;;;2.95;;
13807;SDS011;40769;51.512;5.494;2023-09-30T09:55:40;5.53;;;3.05;;
13807;SDS011;40769;51.512;5.494;2023-09-30T09:58:08;4.13;;;2.50;;
13807;SDS011;40769;51.512;5.494;2023-09-30T10:00:35;6.70;;;3.35;;
13807;SDS011;40769;51.512;5.494;2023-09-30T10:03:02;5.30;;;3.15;;
13807;SDS011;40769;51.512;5.494;2023-09-30T10:05:28;4.47;;;2.97;;
13807;SDS011;40769;51.512;5.494;2023-09-30T10:10:23;5.50;;;2.92;;
13807;SDS011;40769;51.512;5.494;2023-09-30T10:12:50;4.68;;;3.15;;
13807;SDS011;40769;51.512;5.494;2023-09-30T10:18:00;10.57;;;3.28;;
13807;SDS011;40769;51.512;5.494;2023-09-30T10:20:32;4.90;;;3.50;;
13807;SDS011;40769;51.512;5.494;2023-09-30T10:23:27;3.22;;;2.65;;
13807;SDS011;40769;51.512;5.494;2023-09-30T10:26:20;6.53;;;3.22;;
13807;SDS011;40769;51.512;5.494;2023-09-30T10:28:48;3.95;;;2.95;;
13807;SDS011;40769;51.512;5.494;2023-09-30T10:39:00;4.55;;;3.15;;
13807;SDS011;40769;51.512;5.494;2023-09-30T10:46:55;4.97;;;3.47;;
13807;SDS011;40769;51.512;5.494;2023-09-30T10:51:52;3.38;;;2.67;;
13807;SDS011;40769;51.512;5.494;2023-09-30T10:54:23;6.10;;;3.65;;
13807;SDS011;40769;51.512;5.494;2023-09-30T10:56:53;3.85;;;2.72;;
13807;SDS011;40769;51.512;5.494;2023-09-30T10:59:21;4.45;;;3.42;;
13807;SDS011;40769;51.512;5.494;2023-09-30T11:04:45;4.05;;;2.97;;
13807;SDS011;40769;51.512;5.494;2023-09-30T11:07:11;5.10;;;2.95;;
13807;SDS011;40769;51.512;5.494;2023-09-30T11:09:41;8.02;;;3.00;;
13807;SDS011;40769;51.512;5.494;2023-09-30T11:12:13;4.72;;;3.20;;
13807;SDS011;40769;51.512;5.494;2023-09-30T11:14:39;5.97;;;3.42;;
13807;SDS011;40769;51.512;5.494;2023-09-30T11:17:05;6.13;;;3.65;;
13807;SDS011;40769;51.512;5.494;2023-09-30T11:19:34;6.82;;;3.00;;
13807;SDS011;40769;51.512;5.494;2023-09-30T11:22:02;5.57;;;3.30;;
13807;SDS011;40769;51.512;5.494;2023-09-30T11:24:30;5.35;;;3.03;;
13807;SDS011;40769;51.512;5.494;2023-09-30T11:26:57;2.40;;;2.00;;
13807;SDS011;40769;51.512;5.494;2023-09-30T11:29:23;4.78;;;2.67;;
13807;SDS011;40769;51.512;5.494;2023-09-30T11:31:50;4.47;;;2.65;;
13807;SDS011;40769;51.512;5.494;2023-09-30T11:34:18;2.97;;;2.40;;
13807;SDS011;40769;51.512;5.494;2023-09-30T11:36:52;7.32;;;2.83;;
13807;SDS011;40769;51.512;5.494;2023-09-30T11:39:24;3.55;;;2.60;;
13807;SDS011;40769;51.512;5.494;2023-09-30T11:41:50;3.17;;;2.15;;
13807;SDS011;40769;51.512;5.494;2023-09-30T11:44:17;3.22;;;1.90;;
13807;SDS011;40769;51.512;5.494;2023-09-30T11:47:01;3.78;;;2.00;;
13807;SDS011;40769;51.512;5.494;2023-09-30T11:49:34;3.53;;;2.22;;
13807;SDS011;40769;51.512;5.494;2023-09-30T11:52:02;5.28;;;2.38;;
13807;SDS011;40769;51.512;5.494;2023-09-30T11:54:30;3.40;;;2.45;;
13807;SDS011;40769;51.512;5.494;2023-09-30T11:56:58;4.53;;;2.55;;
13807;SDS011;40769;51.512;5.494;2023-09-30T11:59:28;3.53;;;2.50;;
13807;SDS011;40769;51.512;5.494;2023-09-30T12:01:57;2.42;;;2.00;;
13807;SDS011;40769;51.512;5.494;2023-09-30T12:04:24;2.67;;;1.88;;
13807;SDS011;40769;51.512;5.494;2023-09-30T12:06:50;3.20;;;1.92;;
13807;SDS011;40769;51.512;5.494;2023-09-30T12:09:16;2.75;;;2.10;;
13807;SDS011;40769;51.512;5.494;2023-09-30T12:11:50;3.42;;;2.33;;
13807;SDS011;40769;51.512;5.494;2023-09-30T12:14:16;3.55;;;2.75;;
13807;SDS011;40769;51.512;5.494;2023-09-30T12:16:42;4.00;;;2.50;;
13807;SDS011;40769;51.512;5.494;2023-09-30T12:19:12;4.18;;;2.38;;
13807;SDS011;40769;51.512;5.494;2023-09-30T12:21:47;2.92;;;2.08;;
13807;SDS011;40769;51.512;5.494;2023-09-30T12:24:18;4.35;;;2.38;;
13807;SDS011;40769;51.512;5.494;2023-09-30T12:26:46;2.63;;;2.00;;
13807;SDS011;40769;51.512;5.494;2023-09-30T12:29:16;3.55;;;2.20;;
13807;SDS011;40769;51.512;5.494;2023-09-30T12:31:43;2.72;;;1.67;;
13807;SDS011;40769;51.512;5.494;2023-09-30T12:34:09;4.40;;;1.70;;
13807;SDS011;40769;51.512;5.494;2023-09-30T12:36:36;2.60;;;1.92;;
13807;SDS011;40769;51.512;5.494;2023-09-30T12:39:01;3.60;;;2.40;;
13807;SDS011;40769;51.512;5.494;2023-09-30T12:41:35;2.13;;;1.58;;
13807;SDS011;40769;51.512;5.494;2023-09-30T12:44:08;3.47;;;2.38;;
13807;SDS011;40769;51.512;5.494;2023-09-30T12:46:34;3.70;;;1.90;;
13807;SDS011;40769;51.512;5.494;2023-09-30T12:49:02;3.80;;;2.20;;
13807;SDS011;40769;51.512;5.494;2023-09-30T12:51:29;3.45;;;1.98;;
13807;SDS011;40769;51.512;5.494;2023-09-30T12:53:55;2.85;;;1.65;;
13807;SDS011;40769;51.512;5.494;2023-09-30T12:56:23;1.95;;;1.50;;
13807;SDS011;40769;51.512;5.494;2023-09-30T12:58:49;2.22;;;1.50;;
13807;SDS011;40769;51.512;5.494;2023-09-30T13:01:15;3.10;;;2.10;;
13807;SDS011;40769;51.512;5.494;2023-09-30T13:03:43;4.72;;;2.47;;
13807;SDS011;40769;51.512;5.494;2023-09-30T13:06:09;3.28;;;1.85;;
13807;SDS011;40769;51.512;5.494;2023-09-30T13:08:35;3.97;;;1.85;;
13807;SDS011;40769;51.512;5.494;2023-09-30T13:11:01;3.20;;;2.20;;
13807;SDS011;40769;51.512;5.494;2023-09-30T13:13:28;3.85;;;2.00;;
13807;SDS011;40769;51.512;5.494;2023-09-30T13:15:56;3.83;;;2.15;;
13807;SDS011;40769;51.512;5.494;2023-09-30T13:18:24;2.80;;;2.10;;
13807;SDS011;40769;51.512;5.494;2023-09-30T13:20:50;3.35;;;1.90;;
13807;SDS011;40769;51.512;5.494;2023-09-30T13:23:17;2.53;;;2.00;;
13807;SDS011;40769;51.512;5.494;2023-09-30T13:25:44;2.00;;;1.75;;
13807;SDS011;40769;51.512;5.494;2023-09-30T13:28:10;2.53;;;1.98;;
13807;SDS011;40769;51.512;5.494;2023-09-30T13:30:35;2.72;;;2.20;;
13807;SDS011;40769;51.512;5.494;2023-09-30T13:33:01;3.08;;;2.00;;
13807;SDS011;40769;51.512;5.494;2023-09-30T13:35:27;2.63;;;2.00;;
13807;SDS011;40769;51.512;5.494;2023-09-30T13:37:53;2.72;;;1.83;;
13807;SDS011;40769;51.512;5.494;2023-09-30T13:40:18;2.22;;;1.80;;
13807;SDS011;40769;51.512;5.494;2023-09-30T13:42:45;2.88;;;2.10;;
13807;SDS011;40769;51.512;5.494;2023-09-30T13:45:12;2.63;;;2.03;;
13807;SDS011;40769;51.512;5.494;2023-09-30T13:47:38;1.70;;;1.60;;
13807;SDS011;40769;51.512;5.494;2023-09-30T13:50:04;2.42;;;1.90;;
13807;SDS011;40769;51.512;5.494;2023-09-30T13:52:32;2.88;;;2.30;;
13807;SDS011;40769;51.512;5.494;2023-09-30T13:54:59;4.20;;;2.08;;
13807;SDS011;40769;51.512;5.494;2023-09-30T13:57:25;3.38;;;2.00;;
13807;SDS011;40769;51.512;5.494;2023-09-30T13:59:50;2.38;;;1.70;;
13807;SDS011;40769;51.512;5.494;2023-09-30T14:02:16;5.13;;;2.42;;
13807;SDS011;40769;51.512;5.494;2023-09-30T14:04:42;3.78;;;1.98;;
13807;SDS011;40769;51.512;5.494;2023-09-30T14:07:07;3.25;;;2.13;;
13807;SDS011;40769;51.512;5.494;2023-09-30T14:09:33;3.72;;;2.47;;
13807;SDS011;40769;51.512;5.494;2023-09-30T14:11:59;4.40;;;2.80;;
13807;SDS011;40769;51.512;5.494;2023-09-30T14:14:25;2.67;;;2.03;;
13807;SDS011;40769;51.512;5.494;2023-09-30T14:16:51;3.20;;;2.22;;
13807;SDS011;40769;51.512;5.494;2023-09-30T14:19:17;2.53;;;2.13;;
13807;SDS011;40769;51.512;5.494;2023-09-30T14:21:43;3.70;;;2.47;;
13807;SDS011;40769;51.512;5.494;2023-09-30T14:24:09;4.78;;;2.90;;
13807;SDS011;40769;51.512;5.494;2023-09-30T14:26:34;3.67;;;2.80;;
13807;SDS011;40769;51.512;5.494;2023-09-30T14:29:01;4.35;;;2.90;;
13807;SDS011;40769;51.512;5.494;2023-09-30T14:31:27;3.83;;;2.83;;
13807;SDS011;40769;51.512;5.494;2023-09-30T14:33:52;3.15;;;2.33;;
13807;SDS011;40769;51.512;5.494;2023-09-30T14:36:18;4.05;;;2.50;;
13807;SDS011;40769;51.512;5.494;2023-09-30T14:38:44;2.90;;;2.03;;
13807;SDS011;40769;51.512;5.494;2023-09-30T14:41:11;4.07;;;2.60;;
13807;SDS011;40769;51.512;5.494;2023-09-30T14:43:37;3.25;;;2.42;;
13807;SDS011;40769;51.512;5.494;2023-09-30T14:46:04;2.88;;;2.17;;
13807;SDS011;40769;51.512;5.494;2023-09-30T14:48:30;3.78;;;2.42;;
13807;SDS011;40769;51.512;5.494;2023-09-30T14:50:56;4.22;;;2.40;;
13807;SDS011;40769;51.512;5.494;2023-09-30T14:53:23;3.42;;;2.40;;
13807;SDS011;40769;51.512;5.494;2023-09-30T14:55:49;3.92;;;2.60;;
13807;SDS011;40769;51.512;5.494;2023-09-30T14:58:15;3.58;;;2.70;;
13807;SDS011;40769;51.512;5.494;2023-09-30T15:00:41;3.38;;;2.40;;
13807;SDS011;40769;51.512;5.494;2023-09-30T15:03:07;3.83;;;2.55;;
13807;SDS011;40769;51.512;5.494;2023-09-30T15:05:33;3.63;;;2.47;;
13807;SDS011;40769;51.512;5.494;2023-09-30T15:07:59;2.47;;;2.25;;
13807;SDS011;40769;51.512;5.494;2023-09-30T15:10:28;2.50;;;2.30;;
13807;SDS011;40769;51.512;5.494;2023-09-30T15:12:54;6.38;;;3.75;;
13807;SDS011;40769;51.512;5.494;2023-09-30T15:15:20;5.28;;;3.78;;
13807;SDS011;40769;51.512;5.494;2023-09-30T15:17:46;6.07;;;3.67;;
13807;SDS011;40769;51.512;5.494;2023-09-30T15:20:12;5.40;;;4.57;;